Time,TemperatureF,DewpointF,PressureIn,WindDirection,WindDirectionDegrees,WindSpeedMPH,WindSpeedGustMPH,Humidity,HourlyPrecipIn,Conditions,Clouds,dailyrainin,SoftwareType,DateUTC
2013-02-03 00:00:00,24.0,-4.0,-100.00,SSW,212,11.0,14.0,29,-99.99,,,-99.99,,2013-02-03 07:00:00,
2013-02-03 00:42:00,24.0,-4.0,-100.00,SSW,212,11.0,14.0,29,-99.99,,,-99.99,,2013-02-03 07:42:00,
2013-02-03 00:52:00,24.0,-4.0,-100.00,SSW,212,11.0,14.0,29,-99.99,,,-99.99,,2013-02-03 07:52:00,
2013-02-03 01:00:00,22.0,-4.0,-100.00,SW,214,11.0,14.0,30,-99.99,,,-99.99,,2013-02-03 08:00:00,
2013-02-03 01:42:00,22.0,-4.0,-100.00,SW,214,11.0,14.0,30,-99.99,,,-99.99,,2013-02-03 08:42:00,
2013-02-03 01:52:00,22.0,-4.0,-100.00,SW,214,11.0,14.0,30,-99.99,,,-99.99,,2013-02-03 08:52:00,
2013-02-03 02:00:00,22.0,-99.9,-100.00,SSW,213,11.0,16.0,19,-99.99,,,-99.99,,2013-02-03 09:00:00,
2013-02-03 02:42:00,22.0,-13.0,-100.00,SSW,213,11.0,16.0,19,-99.99,,,-99.99,,2013-02-03 09:42:00,
2013-02-03 02:52:00,22.0,-13.0,-100.00,SSW,213,11.0,16.0,19,-99.99,,,-99.99,,2013-02-03 09:52:00,
2013-02-03 03:00:00,21.0,-11.0,-100.00,SW,218,11.0,15.0,23,-99.99,,,-99.99,,2013-02-03 10:00:00,
2013-02-03 03:42:00,21.0,-11.0,-100.00,SW,218,11.0,15.0,23,-99.99,,,-99.99,,2013-02-03 10:42:00,
2013-02-03 03:53:00,21.0,-11.0,-100.00,SW,218,11.0,15.0,23,-99.99,,,-99.99,,2013-02-03 10:53:00,
2013-02-03 04:00:00,20.0,-6.0,-100.00,SW,218,11.0,17.0,30,-99.99,,,-99.99,,2013-02-03 11:00:00,
2013-02-03 04:42:00,20.0,-6.0,-100.00,SW,218,11.0,17.0,30,-99.99,,,-99.99,,2013-02-03 11:42:00,
2013-02-03 04:52:00,20.0,-6.0,-100.00,SW,218,11.0,17.0,30,-99.99,,,-99.99,,2013-02-03 11:52:00,
2013-02-03 05:00:00,20.0,-5.0,-100.00,SW,220,12.0,18.0,33,-99.99,,,-99.99,,2013-02-03 12:00:00,
2013-02-03 05:42:00,20.0,-5.0,-100.00,SW,220,12.0,18.0,33,-99.99,,,-99.99,,2013-02-03 12:42:00,
2013-02-03 05:53:00,20.0,-5.0,-100.00,SW,220,12.0,18.0,33,-99.99,,,-99.99,,2013-02-03 12:53:00,
2013-02-03 06:00:00,21.0,-5.0,-100.00,SW,218,13.0,18.0,31,-99.99,,,-99.99,,2013-02-03 13:00:00,
2013-02-03 06:42:00,21.0,-5.0,-100.00,SW,218,13.0,18.0,31,-99.99,,,-99.99,,2013-02-03 13:42:00,
2013-02-03 06:52:00,21.0,-5.0,-100.00,SW,218,13.0,18.0,31,-99.99,,,-99.99,,2013-02-03 13:52:00,
2013-02-03 07:00:00,23.0,-13.0,-100.00,SW,222,14.0,21.0,19,-99.99,,,-99.99,,2013-02-03 14:00:00,
2013-02-03 07:42:00,23.0,-13.0,-100.00,SW,222,14.0,21.0,19,-99.99,,,-99.99,,2013-02-03 14:42:00,
2013-02-03 07:52:00,23.0,-13.0,-100.00,SW,222,14.0,21.0,19,-99.99,,,-99.99,,2013-02-03 14:52:00,
2013-02-03 08:00:00,22.0,-11.0,-100.00,SW,226,12.0,19.0,22,-99.99,,,-99.99,,2013-02-03 15:00:00,
2013-02-03 08:42:00,22.0,-11.0,-100.00,SW,226,12.0,19.0,22,-99.99,,,-99.99,,2013-02-03 15:42:00,
2013-02-03 08:52:00,22.0,-11.0,-100.00,SW,226,12.0,19.0,22,-99.99,,,-99.99,,2013-02-03 15:52:00,
2013-02-03 09:00:00,23.0,-11.0,-100.00,SW,224,13.0,21.0,20,-99.99,,,-99.99,,2013-02-03 16:00:00,
2013-02-03 09:42:00,23.0,-11.0,-100.00,SW,224,13.0,21.0,20,-99.99,,,-99.99,,2013-02-03 16:42:00,
2013-02-03 09:52:00,23.0,-11.0,-100.00,SW,224,13.0,21.0,20,-99.99,,,-99.99,,2013-02-03 16:52:00,
2013-02-03 10:00:00,24.0,-12.0,-100.00,SW,220,14.0,21.0,19,-99.99,,,-99.99,,2013-02-03 17:00:00,
2013-02-03 10:42:00,24.0,-12.0,-100.00,SW,220,14.0,21.0,19,-99.99,,,-99.99,,2013-02-03 17:42:00,
2013-02-03 10:52:00,24.0,-12.0,-100.00,SW,220,14.0,21.0,19,-99.99,,,-99.99,,2013-02-03 17:52:00,
2013-02-03 11:00:00,24.0,-8.0,-100.00,SW,216,15.0,22.0,24,-99.99,,,-99.99,,2013-02-03 18:00:00,
2013-02-03 11:42:00,24.0,-8.0,-100.00,SW,216,15.0,22.0,24,-99.99,,,-99.99,,2013-02-03 18:42:00,
2013-02-03 11:52:00,24.0,-8.0,-100.00,SW,216,15.0,22.0,24,-99.99,,,-99.99,,2013-02-03 18:52:00,
2013-02-03 12:00:00,26.0,-4.0,-100.00,SW,220,11.0,17.0,26,-99.99,,,-99.99,,2013-02-03 19:00:00,
2013-02-03 12:42:00,26.0,-4.0,-100.00,SW,220,11.0,17.0,26,-99.99,,,-99.99,,2013-02-03 19:42:00,
2013-02-03 12:52:00,26.0,-4.0,-100.00,SW,220,11.0,17.0,26,-99.99,,,-99.99,,2013-02-03 19:52:00,
2013-02-03 13:00:00,25.0,6.0,-100.00,SW,226,11.0,24.0,44,-99.99,,,-99.99,,2013-02-03 20:00:00,
2013-02-03 13:42:00,25.0,6.0,-100.00,SW,226,11.0,24.0,44,-99.99,,,-99.99,,2013-02-03 20:42:00,
2013-02-03 13:52:00,25.0,6.0,-100.00,SW,226,11.0,24.0,44,-99.99,,,-99.99,,2013-02-03 20:52:00,
2013-02-03 14:00:00,20.0,11.0,-100.00,SW,228,12.0,27.0,66,-99.99,,,-99.99,,2013-02-03 21:00:00,
2013-02-03 14:42:00,20.0,11.0,-100.00,SW,228,12.0,27.0,66,-99.99,,,-99.99,,2013-02-03 21:42:00,
2013-02-03 14:52:00,20.0,11.0,-100.00,SW,228,12.0,27.0,66,-99.99,,,-99.99,,2013-02-03 21:52:00,
2013-02-03 15:00:00,17.0,13.0,-100.00,SW,215,15.0,20.0,83,-99.99,,,-99.99,,2013-02-03 22:00:00,
2013-02-03 15:42:00,17.0,13.0,-100.00,SW,215,15.0,20.0,83,-99.99,,,-99.99,,2013-02-03 22:42:00,
2013-02-03 15:52:00,17.0,13.0,-100.00,SW,215,15.0,20.0,83,-99.99,,,-99.99,,2013-02-03 22:52:00,
2013-02-03 16:00:00,17.0,15.0,-100.00,SW,219,14.0,20.0,90,-99.99,,,-99.99,,2013-02-03 23:00:00,
2013-02-03 16:42:00,17.0,15.0,-100.00,SW,219,14.0,20.0,90,-99.99,,,-99.99,,2013-02-03 23:42:00,
2013-02-03 16:52:00,17.0,15.0,-100.00,SW,219,14.0,20.0,90,-99.99,,,-99.99,,2013-02-03 23:52:00,
2013-02-03 17:00:00,17.0,14.0,-100.00,SW,222,12.0,18.0,90,-99.99,,,-99.99,,2013-02-04 00:00:00,
2013-02-03 17:42:00,17.0,14.0,-100.00,SW,222,12.0,18.0,90,-99.99,,,-99.99,,2013-02-04 00:42:00,
2013-02-03 17:52:00,17.0,14.0,-100.00,SW,222,12.0,18.0,90,-99.99,,,-99.99,,2013-02-04 00:52:00,
2013-02-03 18:00:00,17.0,15.0,-100.00,SW,227,9.0,13.0,91,-99.99,,,-99.99,,2013-02-04 01:00:00,
2013-02-03 18:42:00,17.0,15.0,-100.00,SW,227,9.0,13.0,91,-99.99,,,-99.99,,2013-02-04 01:42:00,
2013-02-03 18:52:00,17.0,15.0,-100.00,SW,227,9.0,13.0,91,-99.99,,,-99.99,,2013-02-04 01:52:00,
2013-02-03 19:00:00,18.0,16.0,-100.00,SW,227,6.0,10.0,92,-99.99,,,-99.99,,2013-02-04 02:00:00,
2013-02-03 19:42:00,18.0,16.0,-100.00,SW,227,6.0,10.0,92,-99.99,,,-99.99,,2013-02-04 02:42:00,
2013-02-03 19:52:00,18.0,16.0,-100.00,SW,227,6.0,10.0,92,-99.99,,,-99.99,,2013-02-04 02:52:00,
2013-02-03 20:00:00,19.0,17.0,-100.00,NNW,344,7.0,11.0,90,-99.99,,,-99.99,,2013-02-04 03:00:00,
2013-02-03 20:42:00,19.0,17.0,-100.00,NNW,344,7.0,11.0,90,-99.99,,,-99.99,,2013-02-04 03:42:00,
2013-02-03 20:52:00,19.0,17.0,-100.00,NNW,344,7.0,11.0,90,-99.99,,,-99.99,,2013-02-04 03:52:00,
2013-02-03 21:00:00,18.0,17.0,-100.00,North,8,5.0,8.0,92,-99.99,,,-99.99,,2013-02-04 04:00:00,
2013-02-03 21:42:00,18.0,17.0,-100.00,North,8,5.0,8.0,92,-99.99,,,-99.99,,2013-02-04 04:42:00,
2013-02-03 21:52:00,18.0,17.0,-100.00,North,8,5.0,8.0,92,-99.99,,,-99.99,,2013-02-04 04:52:00,
2013-02-03 22:00:00,17.0,16.0,-100.00,SW,217,8.0,12.0,93,-99.99,,,-99.99,,2013-02-04 05:00:00,
2013-02-03 22:42:00,17.0,16.0,-100.00,SW,217,8.0,12.0,93,-99.99,,,-99.99,,2013-02-04 05:42:00,
2013-02-03 22:52:00,17.0,16.0,-100.00,SW,217,8.0,12.0,93,-99.99,,,-99.99,,2013-02-04 05:52:00,
2013-02-03 23:00:00,17.0,14.0,-100.00,WSW,250,6.0,12.0,88,-99.99,,,-99.99,,2013-02-04 06:00:00,
2013-02-03 23:42:00,17.0,14.0,-100.00,WSW,250,6.0,12.0,88,-99.99,,,-99.99,,2013-02-04 06:42:00,
2013-02-03 23:52:00,17.0,14.0,-100.00,WSW,250,6.0,12.0,88,-99.99,,,-99.99,,2013-02-04 06:52:00,